Time;durP1;ratioP1;P1;durP2;ratioP2;P2;SDS_P1;SDS_P2;PMS_P1;PMS_P2;Temp;Humidity;BMP_temperature;BMP_pressure;BME280_temperature;BME280_humidity;BME280_pressure;Samples;Min_cycle;Max_cycle;Signal;HPM_P1;HPM_P2
2023/01/13 00:02:01;;;;;;;212.23;195.55;;;;;;;0.20;100.00;101810.13;5089110;28;20052;-82
2023/01/13 00:04:28;;;;;;;185.50;170.13;;;;;;;0.20;100.00;101823.19;5086129;28;20051;-82
2023/01/13 00:06:54;;;;;;;207.70;190.50;;;;;;;0.07;100.00;101826.81;5079227;28;20125;-83
2023/01/13 00:09:21;;;;;;;200.95;184.70;;;;;;;0.12;100.00;101830.78;5084422;28;20052;-82
2023/01/13 00:11:49;;;;;;;221.82;204.05;;;;;;;0.14;100.00;101828.88;5083244;28;20044;-82
2023/01/13 00:14:16;;;;;;;186.73;171.57;;;;;;;0.22;100.00;101837.00;5091557;28;20044;-82
2023/01/13 00:16:43;;;;;;;190.77;175.40;;;;;;;0.13;100.00;101836.84;5085534;28;20048;-82
2023/01/13 00:19:10;;;;;;;99.68;90.07;;;;;;;0.08;100.00;101842.38;5085571;28;20041;-83
2023/01/13 00:21:37;;;;;;;99.85;89.72;;;;;;;0.13;100.00;101837.66;5085864;28;20048;-82
2023/01/13 00:24:04;;;;;;;109.40;98.80;;;;;;;0.22;100.00;101837.00;5087143;28;20060;-83
2023/01/13 00:26:32;;;;;;;110.70;100.78;;;;;;;0.07;100.00;101837.28;5087917;28;20476;-83
2023/01/13 00:29:00;;;;;;;96.68;87.05;;;;;;;0.27;100.00;101839.25;5087360;28;20391;-83
2023/01/13 00:31:28;;;;;;;169.93;155.25;;;;;;;0.23;100.00;101846.50;5085514;28;20048;-83
2023/01/13 00:33:56;;;;;;;154.98;141.30;;;;;;;0.21;100.00;101839.69;5085169;28;20056;-83
2023/01/13 00:36:23;;;;;;;162.13;148.52;;;;;;;0.17;100.00;101836.47;5089968;28;20567;-83
2023/01/13 00:38:50;;;;;;;165.05;151.50;;;;;;;0.23;100.00;101840.44;5084825;28;20048;-82
2023/01/13 00:41:18;;;;;;;147.40;135.27;;;;;;;0.07;100.00;101839.88;5087159;28;20430;-83
2023/01/13 00:43:45;;;;;;;164.23;151.30;;;;;;;0.18;100.00;101826.84;5089941;28;20074;-83
2023/01/13 00:46:16;;;;;;;162.73;149.52;;;;;;;0.23;100.00;101830.81;5087639;28;20559;-82
2023/01/13 00:48:43;;;;;;;170.80;157.38;;;;;;;0.20;100.00;101820.59;5086093;28;20055;-83
2023/01/13 00:51:13;;;;;;;141.15;130.13;;;;;;;0.23;100.00;101820.38;5087636;28;20048;-83
2023/01/13 00:53:42;;;;;;;143.75;132.05;;;;;;;0.21;100.00;101814.44;5088597;28;20051;-83
2023/01/13 00:56:13;;;;;;;143.52;131.73;;;;;;;0.27;100.00;101826.19;5082574;28;20049;-83
2023/01/13 00:58:41;;;;;;;116.03;106.30;;;;;;;0.24;100.00;101818.56;5063879;28;20151;-83
2023/01/13 01:01:09;;;;;;;112.40;102.43;;;;;;;0.23;100.00;101815.13;5085144;28;20044;-83
2023/01/13 01:03:38;;;;;;;117.50;107.15;;;;;;;0.39;100.00;101814.88;5066542;28;20465;-83
2023/01/13 01:06:06;;;;;;;154.57;142.27;;;;;;;0.30;100.00;101809.47;5067722;28;20052;-83
2023/01/13 01:08:34;;;;;;;152.02;138.73;;;;;;;0.34;100.00;101816.16;5071200;28;20499;-83
2023/01/13 01:11:03;;;;;;;150.48;137.45;;;;;;;0.28;100.00;101809.59;5077078;28;20056;-83
2023/01/13 01:13:29;;;;;;;152.43;140.02;;;;;;;0.19;100.00;101807.66;5064243;28;20044;-83
2023/01/13 01:15:56;;;;;;;148.90;136.25;;;;;;;0.17;100.00;101823.41;5071498;28;20091;-82
2023/01/13 01:18:23;;;;;;;158.95;144.98;;;;;;;0.22;100.00;101817.88;5071518;28;20110;-82
2023/01/13 01:20:51;;;;;;;144.55;131.80;;;;;;;0.31;100.00;101809.38;5075225;28;20057;-82
2023/01/13 01:23:18;;;;;;;148.88;135.75;;;;;;;0.20;100.00;101817.16;5073341;28;20052;-83
2023/01/13 01:25:44;;;;;;;154.48;141.45;;;;;;;0.23;100.00;101816.91;5073809;28;20052;-82
2023/01/13 01:28:11;;;;;;;147.93;135.82;;;;;;;0.25;100.00;101816.81;5069359;28;20059;-82
2023/01/13 01:30:39;;;;;;;115.28;104.88;;;;;;;0.20;100.00;101804.91;5072500;28;20057;-82
2023/01/13 01:33:06;;;;;;;100.13;90.72;;;;;;;0.05;100.00;101803.41;5072517;28;20049;-83
2023/01/13 01:35:33;;;;;;;124.65;114.43;;;;;;;0.14;100.00;101807.13;5068293;28;20465;-83
2023/01/13 01:38:01;;;;;;;129.63;119.13;;;;;;;0.05;100.00;101792.97;5073216;28;20102;-83
2023/01/13 01:40:27;;;;;;;119.60;109.28;;;;;;;0.20;100.00;101798.84;5074579;28;20052;-83
2023/01/13 01:45:38;;;;;;;127.40;116.43;;;;;;;0.00;100.00;101797.69;5072764;28;20072;-83
2023/01/13 01:48:07;;;;;;;116.65;106.28;;;;;;;0.21;100.00;101797.91;5072487;28;20062;-83
2023/01/13 01:50:34;;;;;;;92.15;83.25;;;;;;;0.08;100.00;101797.13;5068921;28;20056;-82
2023/01/13 01:53:07;;;;;;;109.93;99.63;;;;;;;0.26;100.00;101801.00;5072243;28;20053;-83
2023/01/13 01:55:36;;;;;;;105.75;96.00;;;;;;;0.21;100.00;101793.53;5073012;28;20048;-83
2023/01/13 01:58:10;;;;;;;107.70;97.25;;;;;;;0.01;100.00;101782.84;5077286;28;20084;-83
2023/01/13 02:00:36;;;;;;;111.65;101.10;;;;;;;0.05;100.00;101795.56;5071811;28;20054;-83
2023/01/13 02:03:04;;;;;;;126.65;114.90;;;;;;;0.07;100.00;101793.69;5070031;28;20049;-82
2023/01/13 02:05:33;;;;;;;121.85;110.50;;;;;;;0.25;100.00;101795.91;5070209;28;20045;-82
2023/01/13 02:08:02;;;;;;;110.88;100.13;;;;;;;0.35;100.00;101791.66;5066813;28;20106;-83
2023/01/13 02:10:33;;;;;;;110.55;100.38;;;;;;;0.33;100.00;101790.94;5071343;28;20045;-83
2023/01/13 02:13:01;;;;;;;101.20;91.05;;;;;;;0.38;100.00;101789.66;5065740;28;20045;-82
2023/01/13 02:15:38;;;;;;;113.05;102.38;;;;;;;0.35;100.00;101789.06;5073776;28;20055;-83
2023/01/13 02:18:20;;;;;;;128.57;116.82;;;;;;;0.42;100.00;101785.88;5068279;28;20049;-83
2023/01/13 02:21:06;;;;;;;134.02;121.15;;;;;;;0.34;100.00;101788.22;5070461;28;20064;-82
2023/01/13 02:27:18;;;;;;;134.85;120.80;;;;;;;0.26;100.00;101782.72;5070930;28;20051;-83
2023/01/13 02:32:51;;;;;;;115.40;104.60;;;;;;;0.00;100.00;101779.41;5062976;28;20079;-83
2023/01/13 02:35:24;;;;;;;117.97;107.28;;;;;;;0.09;100.00;101778.75;5059387;28;20041;-83
2023/01/13 02:37:53;;;;;;;136.68;124.35;;;;;;;0.17;100.00;101780.78;5072800;28;20075;-83
2023/01/13 02:40:25;;;;;;;135.40;123.15;;;;;;;0.22;100.00;101787.34;5071860;28;20041;-82
2023/01/13 02:45:51;;;;;;;129.23;118.47;;;;;;;0.27;100.00;101789.59;5070047;28;20098;-83
2023/01/13 02:48:21;;;;;;;129.38;117.45;;;;;;;0.27;100.00;101788.78;5074807;28;20114;-83
2023/01/13 02:50:53;;;;;;;117.63;106.25;;;;;;;0.18;100.00;101785.06;5067021;28;20140;-83
2023/01/13 02:53:22;;;;;;;;;;;;;;;0.21;100.00;101792.66;5062606;28;20045;-82
2023/01/13 02:55:53;;;;;;;122.03;110.82;;;;;;;0.03;100.00;101779.19;5071214;28;20037;-83
2023/01/13 02:58:23;;;;;;;123.63;111.28;;;;;;;-0.04;100.00;101788.41;5076546;28;20051;-83
2023/01/13 03:00:52;;;;;;;141.98;128.68;;;;;;;0.18;100.00;101785.06;5068262;28;20102;-82
2023/01/13 03:03:19;;;;;;;111.60;100.68;;;;;;;0.25;100.00;101788.91;5071692;28;20045;-83
2023/01/13 03:05:49;;;;;;;126.57;115.25;;;;;;;0.15;100.00;101783.53;5067450;28;20071;-83
2023/01/13 03:08:41;;;;;;;118.13;107.43;;;;;;;0.28;100.00;101793.91;5067054;28;20045;-82
2023/01/13 03:11:11;;;;;;;127.05;116.15;;;;;;;0.23;100.00;101788.19;5071324;28;20044;-83
2023/01/13 03:13:47;;;;;;;103.07;93.03;;;;;;;0.03;100.00;101787.03;5062752;28;20041;-82
2023/01/13 03:16:27;;;;;;;100.90;90.97;;;;;;;0.06;100.00;101794.66;5070591;28;20106;-83
2023/01/13 03:19:05;;;;;;;100.72;90.47;;;;;;;0.29;100.00;101792.13;5069397;28;20049;-82
2023/01/13 03:21:39;;;;;;;111.82;101.53;;;;;;;0.24;100.00;101795.06;5068331;28;20109;-83
2023/01/13 03:24:12;;;;;;;100.90;90.63;;;;;;;0.34;100.00;101788.22;5067094;28;20098;-83
2023/01/13 03:26:42;;;;;;;113.03;101.63;;;;;;;0.30;100.00;101785.94;5071048;28;20399;-82
2023/01/13 03:29:14;;;;;;;99.70;90.00;;;;;;;0.28;100.00;101790.47;5067572;28;20052;-82
2023/01/13 03:31:50;;;;;;;105.70;95.15;;;;;;;0.14;100.00;101788.84;5071669;28;20044;-83
2023/01/13 03:34:22;;;;;;;101.28;91.35;;;;;;;0.11;100.00;101787.28;5069032;28;20421;-83
2023/01/13 03:36:54;;;;;;;124.70;112.97;;;;;;;0.15;100.00;101777.44;5070474;28;20044;-83
2023/01/13 03:39:26;;;;;;;105.50;95.70;;;;;;;0.24;100.00;101795.06;5066840;28;20299;-83
2023/01/13 03:41:58;;;;;;;93.63;81.03;;;;;;;0.33;100.00;101785.72;5069493;28;20052;-82
2023/01/13 03:44:31;;;;;;;102.25;91.82;;;;;;;0.06;100.00;101780.72;5055932;28;20079;-82
2023/01/13 03:49:46;;;;;;;109.78;98.40;;;;;;;0.29;100.00;101794.75;5091608;27;20395;-82
2023/01/13 03:55:07;;;;;;;104.38;93.97;;;;;;;0.33;100.00;101804.84;5174304;27;20111;-81
2023/01/13 03:57:39;;;;;;;155.65;114.00;;;;;;;0.35;100.00;101808.19;5157810;27;20463;-82
2023/01/13 04:00:10;;;;;;;167.95;124.60;;;;;;;0.24;100.00;101805.50;5157907;27;20163;-82
2023/01/13 04:02:47;;;;;;;138.00;115.20;;;;;;;0.30;100.00;101807.69;5152766;27;20047;-82
2023/01/13 04:05:14;;;;;;;127.15;106.25;;;;;;;0.24;100.00;101802.91;5153682;27;20518;-82
2023/01/13 04:07:47;;;;;;;138.30;106.80;;;;;;;0.22;100.00;101804.81;5154892;27;20062;-82
2023/01/13 04:10:20;;;;;;;115.55;98.68;;;;;;;0.37;100.00;101814.13;5157309;27;20039;-82
2023/01/13 04:13:01;;;;;;;139.38;105.85;;;;;;;0.26;100.00;101814.09;5159040;27;20047;-82
2023/01/13 04:15:30;;;;;;;113.65;101.07;;;;;;;0.11;100.00;101802.13;5156771;27;20042;-82
2023/01/13 04:18:03;;;;;;;139.27;106.13;;;;;;;0.04;100.00;101812.19;5157013;27;20492;-82
2023/01/13 04:20:29;;;;;;;123.15;108.50;;;;;;;0.23;100.00;101809.09;5157732;27;20047;-82
2023/01/13 04:22:56;;;;;;;207.05;157.02;;;;;;;0.17;100.00;101820.81;5157101;27;20107;-82
2023/01/13 04:25:24;;;;;;;147.25;122.13;;;;;;;0.26;100.00;101813.25;5157025;27;20127;-82
2023/01/13 04:27:51;;;;;;;111.70;99.57;;;;;;;0.26;100.00;101810.63;5157729;27;20077;-82
2023/01/13 04:30:18;;;;;;;100.35;89.45;;;;;;;0.22;100.00;101804.81;5157044;27;20051;-82
2023/01/13 04:32:44;;;;;;;106.90;95.45;;;;;;;0.27;100.00;101805.28;5156474;27;20051;-83
2023/01/13 04:35:11;;;;;;;99.00;86.72;;;;;;;0.27;100.00;101818.34;5155327;27;20099;-82
2023/01/13 04:37:38;;;;;;;96.38;86.28;;;;;;;0.34;100.00;101816.97;5157283;27;20039;-82
2023/01/13 04:40:06;;;;;;;131.73;119.80;;;;;;;0.38;100.00;101807.97;5152016;27;20051;-82
2023/01/13 04:42:34;;;;;;;127.65;114.47;;;;;;;0.34;100.00;101819.59;5157733;27;20050;-82
2023/01/13 04:45:01;;;;;;;149.73;135.15;;;;;;;0.37;100.00;101810.69;5156790;27;20047;-82
2023/01/13 04:47:28;;;;;;;164.88;148.10;;;;;;;0.36;100.00;101817.69;5156151;27;20064;-83
2023/01/13 04:49:55;;;;;;;147.90;132.63;;;;;;;0.26;100.00;101805.41;5157145;27;20051;-83
2023/01/13 04:52:21;;;;;;;155.20;140.52;;;;;;;0.29;100.00;101816.47;5150411;27;20079;-83
2023/01/13 04:54:48;;;;;;;145.27;131.85;;;;;;;0.35;100.00;101809.97;5159232;27;20043;-82
2023/01/13 04:57:15;;;;;;;154.18;138.70;;;;;;;0.42;100.00;101813.78;5159227;27;20058;-83
2023/01/13 04:59:47;;;;;;;143.35;127.47;;;;;;;0.45;100.00;101813.56;5158323;27;20064;-83
2023/01/13 05:02:18;;;;;;;124.25;98.95;;;;;;;0.36;100.00;101816.84;5146128;27;20069;-83
2023/01/13 05:04:45;;;;;;;142.40;117.90;;;;;;;0.44;100.00;101824.97;5146576;27;20477;-83
2023/01/13 05:07:12;;;;;;;233.93;131.88;;;;;;;0.35;100.00;101823.84;5138015;27;20098;-82
2023/01/13 05:09:39;;;;;;;153.85;102.28;;;;;;;0.42;100.00;101822.47;5143727;27;20039;-83
2023/01/13 05:17:36;;;;;;;139.57;108.00;;;;;;;0.41;100.00;101831.25;5144452;27;20515;-83
2023/01/13 05:20:04;;;;;;;111.43;88.82;;;;;;;0.30;100.00;101827.75;5144812;27;20055;-82
2023/01/13 05:25:21;;;;;;;98.50;84.55;;;;;;;0.34;100.00;101832.66;5143549;27;20060;-82
2023/01/13 05:27:48;;;;;;;99.35;86.10;;;;;;;0.40;100.00;101831.38;5144828;27;20051;-83
2023/01/13 05:30:17;;;;;;;107.40;88.65;;;;;;;0.45;100.00;101834.47;5144264;27;20065;-83
2023/01/13 05:32:44;;;;;;;99.47;81.57;;;;;;;0.33;100.00;101838.81;5144401;27;20043;-82
2023/01/13 05:35:11;;;;;;;115.65;88.85;;;;;;;0.26;100.00;101836.78;5143531;27;20072;-82
2023/01/13 05:37:38;;;;;;;122.03;98.22;;;;;;;0.37;100.00;101840.28;5143743;27;20047;-83
2023/01/13 05:45:46;;;;;;;106.50;92.82;;;;;;;0.38;100.00;101830.66;5144527;27;20068;-83
2023/01/13 05:48:14;;;;;;;101.32;85.50;;;;;;;0.23;100.00;101824.75;5143892;27;20040;-83
2023/01/13 05:50:41;;;;;;;84.72;75.07;;;;;;;0.35;100.00;101830.88;5140411;27;20415;-83
2023/01/13 05:53:07;;;;;;;87.47;78.30;;;;;;;0.29;100.00;101832.16;5141769;27;20470;-83
2023/01/13 05:55:34;;;;;;;84.82;76.32;;;;;;;0.18;100.00;101832.94;5137234;27;20596;-83
2023/01/13 05:58:01;;;;;;;83.95;75.60;;;;;;;0.38;100.00;101835.88;5143821;27;20073;-83
2023/01/13 06:00:29;;;;;;;86.57;78.03;;;;;;;0.32;100.00;101831.94;5141044;27;20047;-82
2023/01/13 06:02:58;;;;;;;85.75;77.22;;;;;;;0.49;100.00;101837.72;5130992;27;20044;-83
2023/01/13 06:05:28;;;;;;;81.95;73.38;;;;;;;0.45;100.00;101837.09;5132959;27;20051;-83
2023/01/13 06:07:57;;;;;;;84.05;75.75;;;;;;;0.53;100.00;101844.38;5138774;27;20047;-83
2023/01/13 06:10:24;;;;;;;76.25;68.82;;;;;;;0.51;100.00;101839.25;5143294;27;20495;-83
2023/01/13 06:12:55;;;;;;;80.88;72.65;;;;;;;0.56;100.00;101838.91;5128884;27;20071;-83
2023/01/13 06:15:24;;;;;;;84.97;76.20;;;;;;;0.56;100.00;101841.53;5142886;27;20079;-83
2023/01/13 06:17:53;;;;;;;85.85;76.85;;;;;;;0.60;100.00;101845.59;5136637;27;20123;-82
2023/01/13 06:20:25;;;;;;;86.45;77.60;;;;;;;0.68;100.00;101854.53;5128378;27;20432;-83
2023/01/13 06:22:54;;;;;;;86.40;77.65;;;;;;;0.59;100.00;101852.59;5122273;27;20496;-83
2023/01/13 06:25:33;;;;;;;80.13;72.03;;;;;;;0.53;100.00;101850.44;5138988;27;20468;-83
2023/01/13 06:28:01;;;;;;;79.93;71.93;;;;;;;0.54;100.00;101862.56;5130034;27;20054;-83
2023/01/13 06:30:32;;;;;;;84.75;76.28;;;;;;;0.63;100.00;101861.03;5123939;27;20099;-82
2023/01/13 06:33:07;;;;;;;85.68;77.10;;;;;;;0.54;100.00;101873.00;5125298;27;20047;-82
2023/01/13 06:35:39;;;;;;;94.10;85.50;;;;;;;0.56;100.00;101870.31;5139830;27;20462;-83
2023/01/13 06:38:09;;;;;;;83.20;74.65;;;;;;;0.50;100.00;101870.75;5140439;27;20051;-83
2023/01/13 06:40:36;;;;;;;93.80;85.18;;;;;;;0.52;100.00;101874.91;5130667;27;20076;-82
2023/01/13 06:43:17;;;;;;;89.38;80.40;;;;;;;0.64;100.00;101881.03;5140455;27;20101;-82
2023/01/13 06:45:48;;;;;;;95.07;83.50;;;;;;;0.63;100.00;101876.72;4771580;27;10000108;-82
2023/01/13 06:48:20;;;;;;;103.70;91.55;;;;;;;0.66;100.00;101882.56;5118944;27;20124;-82
2023/01/13 06:50:53;;;;;;;93.93;84.10;;;;;;;0.45;100.00;101890.22;5118383;27;20039;-82
2023/01/13 06:53:25;;;;;;;91.68;81.60;;;;;;;0.53;100.00;101881.81;5123636;27;20048;-83
2023/01/13 06:58:37;;;;;;;86.95;78.00;;;;;;;0.70;100.00;101893.66;5131401;27;20130;-83
2023/01/13 07:01:04;;;;;;;93.00;83.55;;;;;;;0.69;100.00;101891.97;5130067;27;20100;-82
2023/01/13 07:03:32;;;;;;;98.30;88.70;;;;;;;0.70;100.00;101893.66;5126430;27;20035;-82
2023/01/13 07:06:05;;;;;;;91.07;81.70;;;;;;;0.79;100.00;101892.16;5130482;27;20101;-82
2023/01/13 07:08:34;;;;;;;91.30;82.57;;;;;;;0.73;100.00;101892.56;5126685;27;20570;-83
2023/01/13 07:11:02;;;;;;;85.47;76.43;;;;;;;0.75;100.00;101893.31;5137972;27;20099;-83
2023/01/13 07:16:15;;;;;;;84.72;76.57;;;;;;;0.77;100.00;101897.47;5138953;27;20054;-83
2023/01/13 07:18:44;;;;;;;86.05;77.90;;;;;;;0.60;100.00;101887.41;5140057;27;20047;-83
2023/01/13 07:23:57;;;;;;;98.60;88.35;;;;;;;0.75;100.00;101903.78;5126691;27;20056;-82
2023/01/13 07:26:25;;;;;;;93.45;83.57;;;;;;;0.79;100.00;101900.00;5136307;27;20513;-83
2023/01/13 07:28:53;;;;;;;100.22;89.90;;;;;;;0.73;100.00;101897.81;5128286;27;20497;-83
2023/01/13 07:31:22;;;;;;;97.93;87.20;;;;;;;0.65;100.00;101895.78;5124742;27;20107;-83
2023/01/13 07:33:49;;;;;;;100.80;90.68;;;;;;;0.71;100.00;101903.16;5138340;27;20050;-82
2023/01/13 07:36:27;;;;;;;108.32;98.15;;;;;;;0.74;100.00;101902.09;5121625;27;20073;-82
2023/01/13 07:38:57;;;;;;;94.78;86.13;;;;;;;0.84;100.00;101906.53;5135965;27;20047;-83
2023/01/13 07:44:09;;;;;;;114.63;105.00;;;;;;;0.95;100.00;101915.38;5126588;27;20124;-82
2023/01/13 07:46:37;;;;;;;117.90;107.40;;;;;;;0.90;100.00;101913.94;5132338;27;20111;-82
2023/01/13 07:49:04;;;;;;;133.63;122.55;;;;;;;0.93;100.00;101906.81;5139881;27;20195;-83
2023/01/13 07:51:36;;;;;;;118.55;108.40;;;;;;;1.00;100.00;101908.88;5129552;27;20413;-83
2023/01/13 07:54:03;;;;;;;132.93;120.22;;;;;;;1.01;100.00;101917.53;5128974;28;20047;-82
2023/01/13 07:56:29;;;;;;;105.05;94.88;;;;;;;1.07;100.00;101922.31;5138958;28;20103;-83
2023/01/13 07:59:01;;;;;;;96.72;87.88;;;;;;;0.87;100.00;101914.16;5131973;28;20047;-83
2023/01/13 08:01:30;;;;;;;95.75;87.80;;;;;;;1.02;100.00;101917.41;5133662;28;20044;-83
2023/01/13 08:03:58;;;;;;;91.20;82.20;;;;;;;1.06;100.00;101915.41;5121693;28;20043;-83
2023/01/13 08:06:26;;;;;;;93.07;83.95;;;;;;;1.08;100.00;101914.34;5129799;28;20074;-83
2023/01/13 08:08:55;;;;;;;95.72;85.30;;;;;;;1.06;100.00;101921.50;5135828;28;20465;-83
2023/01/13 08:11:24;;;;;;;97.45;87.68;;;;;;;0.88;100.00;101918.47;5127225;28;20428;-83
2023/01/13 08:13:56;;;;;;;82.30;74.57;;;;;;;0.97;100.00;101922.19;5138946;28;20133;-83
2023/01/13 08:16:25;;;;;;;100.10;91.43;;;;;;;1.19;100.00;101928.44;5139200;28;20078;-82
2023/01/13 08:18:52;;;;;;;93.80;85.45;;;;;;;1.10;100.00;101920.31;5135228;28;20069;-83
2023/01/13 08:21:19;;;;;;;98.95;89.93;;;;;;;1.16;100.00;101933.88;5124661;28;20096;-82
2023/01/13 08:23:46;;;;;;;95.30;87.13;;;;;;;0.82;100.00;101933.78;5135482;28;20096;-82
2023/01/13 08:26:17;;;;;;;88.65;80.40;;;;;;;1.03;100.00;101928.72;5133136;28;20051;-82
2023/01/13 08:28:48;;;;;;;89.90;81.95;;;;;;;0.79;100.00;101926.97;5134494;28;20065;-82
2023/01/13 08:31:18;;;;;;;106.20;97.70;;;;;;;0.99;100.00;101924.66;5128339;28;20601;-83
2023/01/13 08:33:48;;;;;;;92.38;84.47;;;;;;;1.42;100.00;101931.91;5130348;28;20047;-82
2023/01/13 08:36:15;;;;;;;96.35;87.38;;;;;;;1.50;100.00;101937.41;5128338;28;20050;-83
2023/01/13 08:38:42;;;;;;;90.88;82.63;;;;;;;1.59;100.00;101927.06;5138894;28;20053;-83
2023/01/13 08:41:11;;;;;;;95.13;86.80;;;;;;;1.55;100.00;101932.66;5141164;27;20051;-83
2023/01/13 08:43:42;;;;;;;86.22;78.07;;;;;;;1.50;100.00;101924.31;5143850;27;20162;-83
2023/01/13 08:46:09;;;;;;;80.07;73.05;;;;;;;1.66;100.00;101916.09;5138272;27;20043;-83
2023/01/13 08:48:38;;;;;;;89.35;81.25;;;;;;;1.37;100.00;101913.94;5138885;27;20051;-82
2023/01/13 08:51:10;;;;;;;90.88;83.07;;;;;;;1.53;100.00;101910.97;5142593;27;20068;-83
2023/01/13 08:53:38;;;;;;;104.30;93.28;;;;;;;1.56;100.00;101906.34;5142514;27;20046;-82
2023/01/13 08:56:10;;;;;;;126.10;110.00;;;;;;;1.60;100.00;101909.53;5142491;27;20063;-82
2023/01/13 08:58:37;;;;;;;;;;;;;;;1.67;100.00;101904.69;5137730;27;20051;-82
2023/01/13 09:01:22;;;;;;;100.68;92.07;;;;;;;1.58;100.00;101901.81;5125775;27;19981;-82
2023/01/13 09:03:49;;;;;;;92.63;84.03;;;;;;;1.69;100.00;101900.16;5095973;27;20055;-82
2023/01/13 09:06:17;;;;;;;109.15;88.70;;;;;;;1.61;100.00;101900.75;5007249;28;20071;-82
2023/01/13 09:08:44;;;;;;;92.32;81.88;;;;;;;1.62;100.00;101896.34;5083839;28;20101;-82
2023/01/13 09:14:19;;;;;;;109.13;90.57;;;;;;;1.92;100.00;101896.56;5019964;28;20037;-82
2023/01/13 09:16:52;;;;;;;81.95;73.78;;;;;;;1.83;100.00;101886.81;5022596;28;20092;-82
2023/01/13 09:19:21;;;;;;;89.43;81.13;;;;;;;1.66;100.00;101885.50;5060907;28;20079;-82
2023/01/13 09:21:51;;;;;;;83.60;75.47;;;;;;;1.70;100.00;101892.19;5087722;28;20072;-82
2023/01/13 09:24:23;;;;;;;90.13;81.60;;;;;;;1.72;100.00;101892.88;5088813;28;20067;-82
2023/01/13 09:26:52;;;;;;;86.13;78.50;;;;;;;1.58;100.00;101898.38;5090935;28;20416;-83
2023/01/13 09:29:21;;;;;;;103.45;92.82;;;;;;;1.69;100.00;101897.53;5084708;28;20055;-83
2023/01/13 09:32:06;;;;;;;95.95;86.68;;;;;;;1.70;100.00;101892.19;5086140;28;20051;-82
2023/01/13 09:37:18;;;;;;;82.32;74.60;;;;;;;1.77;100.00;101880.28;5092345;28;20109;-82
2023/01/13 09:39:46;;;;;;;91.35;83.10;;;;;;;1.49;100.00;101883.38;5097558;28;20044;-82
2023/01/13 09:45:24;;;;;;;93.35;86.07;;;;;;;1.80;100.00;101880.03;5090507;28;20051;-82
2023/01/13 09:48:06;;;;;;;98.20;90.32;;;;;;;1.69;100.00;101876.56;5082437;28;20067;-83
2023/01/13 09:50:48;;;;;;;88.32;81.45;;;;;;;1.66;100.00;101882.88;5092028;28;20463;-82
2023/01/13 09:53:20;;;;;;;83.57;76.43;;;;;;;1.84;100.00;101886.69;5093200;28;20135;-82
2023/01/13 09:55:47;;;;;;;96.47;87.25;;;;;;;1.92;100.00;101882.66;5086401;28;20093;-82
2023/01/13 09:58:35;;;;;;;93.15;83.85;;;;;;;1.91;100.00;101881.81;5082802;28;20073;-82
2023/01/13 10:01:16;;;;;;;85.35;77.82;;;;;;;1.88;100.00;101868.97;5093499;28;20052;-83
2023/01/13 10:03:51;;;;;;;94.13;85.72;;;;;;;2.01;100.00;101868.81;5102458;28;20498;-82
2023/01/13 10:06:33;;;;;;;84.25;77.35;;;;;;;1.84;100.00;101867.50;5099849;28;20068;-83
2023/01/13 10:09:00;;;;;;;85.60;78.13;;;;;;;1.93;100.00;101855.47;5099449;28;20475;-83
2023/01/13 10:15:35;;;;;;;84.25;76.93;;;;;;;2.27;100.00;101851.84;5115204;28;20417;-83
2023/01/13 10:18:09;;;;;;;80.18;73.65;;;;;;;2.31;100.00;101844.56;5116178;28;20044;-83
2023/01/13 10:20:49;;;;;;;80.00;74.00;;;;;;;2.42;100.00;101843.66;5115783;28;20109;-82
2023/01/13 10:23:39;;;;;;;81.75;75.25;;;;;;;2.36;100.00;101839.78;5111279;28;20103;-83
2023/01/13 10:26:22;;;;;;;73.80;68.00;;;;;;;2.49;100.00;101831.72;5114100;28;20467;-83
2023/01/13 10:28:54;;;;;;;70.55;64.72;;;;;;;2.60;100.00;101836.91;5115513;28;20052;-83
2023/01/13 10:31:23;;;;;;;74.35;68.45;;;;;;;2.60;100.00;101836.09;5113489;28;20048;-82
2023/01/13 10:33:58;;;;;;;69.75;63.97;;;;;;;2.68;100.00;101829.25;5115354;28;20056;-83
2023/01/13 10:36:26;;;;;;;69.00;63.50;;;;;;;2.58;100.00;101830.97;5115645;28;20105;-83
2023/01/13 10:38:52;;;;;;;64.90;60.00;;;;;;;2.53;100.00;101826.09;5115765;28;20078;-82
2023/01/13 10:41:24;;;;;;;67.50;62.47;;;;;;;2.68;100.00;101824.00;5117012;28;20563;-82
2023/01/13 10:44:04;;;;;;;71.00;65.60;;;;;;;2.73;100.00;101815.75;5106784;28;20111;-82
2023/01/13 10:46:33;;;;;;;71.00;65.50;;;;;;;2.94;100.00;101813.97;5108144;28;20044;-83
2023/01/13 10:49:01;;;;;;;66.70;61.60;;;;;;;2.97;100.00;101815.50;5115942;28;20051;-83
2023/01/13 10:51:29;;;;;;;62.28;57.58;;;;;;;2.97;100.00;101813.69;5106770;28;20048;-82
2023/01/13 10:54:01;;;;;;;64.53;59.85;;;;;;;2.96;100.00;101813.81;5113443;28;20056;-83
2023/01/13 10:56:29;;;;;;;;;;;;;;;3.07;100.00;101818.16;5112318;28;20067;-83
2023/01/13 10:59:21;;;;;;;64.78;59.92;;;;;;;3.01;100.00;101811.66;5108886;28;19919;-83
2023/01/13 11:02:17;;;;;;;61.80;57.30;;;;;;;3.09;100.00;101805.75;5111323;28;20044;-82
2023/01/13 11:04:59;;;;;;;67.63;62.08;;;;;;;3.19;100.00;101811.88;5108446;28;20426;-83
2023/01/13 11:07:35;;;;;;;63.58;58.47;;;;;;;3.22;100.00;101807.19;5111487;28;20048;-82
2023/01/13 11:10:16;;;;;;;64.47;59.47;;;;;;;3.04;100.00;101805.31;5115324;28;20039;-83
2023/01/13 11:12:49;;;;;;;67.18;61.70;;;;;;;3.47;100.00;101801.63;5116508;28;20501;-83
2023/01/13 11:15:21;;;;;;;64.25;59.15;;;;;;;3.39;100.00;101799.69;5114157;28;20048;-82
2023/01/13 11:17:59;;;;;;;63.28;58.22;;;;;;;3.62;100.00;101795.03;5103600;28;20052;-83
2023/01/13 11:20:32;;;;;;;66.88;61.78;;;;;;;3.42;100.00;101794.97;5100873;28;20063;-83
2023/01/13 11:23:03;;;;;;;66.32;61.03;;;;;;;3.47;100.00;101799.00;5100664;28;20044;-82
2023/01/13 11:25:40;;;;;;;66.43;61.22;;;;;;;3.58;100.00;101791.03;5092926;28;20105;-82
2023/01/13 11:28:21;;;;;;;64.97;59.83;;;;;;;3.61;100.00;101791.59;5097523;28;20052;-83
2023/01/13 11:30:55;;;;;;;62.53;57.65;;;;;;;3.70;100.00;101787.31;5098322;28;20433;-83
2023/01/13 11:33:36;;;;;;;60.75;56.35;;;;;;;3.01;100.00;101782.78;5100465;28;20124;-83
2023/01/13 11:36:12;;;;;;;61.38;56.67;;;;;;;3.55;100.00;101786.88;5096595;28;20112;-82
2023/01/13 11:38:46;;;;;;;63.38;58.55;;;;;;;3.76;100.00;101783.31;5099818;28;20104;-83
2023/01/13 11:41:31;;;;;;;60.00;55.53;;;;;;;3.44;100.00;101782.53;5088820;28;20067;-83
2023/01/13 11:44:07;;;;;;;67.70;62.53;;;;;;;3.25;100.00;101779.03;5093279;28;20135;-83
2023/01/13 11:46:36;;;;;;;66.75;61.45;;;;;;;3.22;100.00;101778.31;5093174;28;20070;-82
2023/01/13 11:49:04;;;;;;;63.80;58.75;;;;;;;2.79;100.00;101767.19;5104763;28;20043;-83
2023/01/13 11:51:36;;;;;;;68.10;62.65;;;;;;;3.54;100.00;101760.72;5099427;28;20387;-83
2023/01/13 11:54:18;;;;;;;66.22;61.17;;;;;;;2.81;100.00;101779.19;5098638;28;20078;-83
2023/01/13 11:57:04;;;;;;;71.55;65.75;;;;;;;3.14;100.00;101769.41;5099852;28;20055;-83
2023/01/13 11:59:53;;;;;;;67.35;62.20;;;;;;;3.30;100.00;101766.31;5095690;28;20055;-83
2023/01/13 12:02:37;;;;;;;75.53;69.72;;;;;;;3.51;100.00;101768.84;5103226;28;20059;-83
2023/01/13 12:05:12;;;;;;;73.65;68.15;;;;;;;3.01;100.00;101761.78;5094877;28;20097;-83
2023/01/13 12:07:50;;;;;;;79.28;73.10;;;;;;;3.55;100.00;101757.13;5094549;28;20109;-83
2023/01/13 12:10:27;;;;;;;67.95;62.85;;;;;;;3.08;100.00;101762.06;5095227;28;20410;-83
2023/01/13 12:13:03;;;;;;;69.15;63.88;;;;;;;2.95;100.00;101763.13;5095061;28;20430;-83
2023/01/13 12:15:47;;;;;;;67.45;62.45;;;;;;;3.72;100.00;101763.53;5095583;28;20056;-83
2023/01/13 12:18:42;;;;;;;78.13;72.57;;;;;;;3.56;100.00;101759.63;5090163;28;20044;-83